createdAt,value
2023-04-04T00:01:21.343Z,6.25
2023-04-04T00:03:51.641Z,5.68
2023-04-04T00:06:19.096Z,5.95
2023-04-04T00:08:45.524Z,5.13
2023-04-04T00:11:11.934Z,6.40
2023-04-04T00:13:38.839Z,12.68
2023-04-04T00:16:06.000Z,7.60
2023-04-04T00:18:32.630Z,7.07
2023-04-04T00:20:59.432Z,7.28
2023-04-04T00:23:25.817Z,8.32
2023-04-04T00:25:52.835Z,12.32
2023-04-04T00:28:20.527Z,13.93
2023-04-04T00:30:47.332Z,9.95
2023-04-04T00:33:17.095Z,9.00
2023-04-04T00:35:43.616Z,7.05
2023-04-04T00:38:10.075Z,7.78
2023-04-04T00:40:43.942Z,7.63
2023-04-04T00:43:10.436Z,11.65
2023-04-04T00:45:36.944Z,10.50
2023-04-04T00:48:03.490Z,9.50
2023-04-04T00:50:32.063Z,7.68
2023-04-04T00:52:58.800Z,12.88
2023-04-04T00:55:25.730Z,12.85
2023-04-04T00:57:52.345Z,12.70
2023-04-04T01:00:18.965Z,12.77
2023-04-04T01:02:45.436Z,12.68
2023-04-04T01:05:12.500Z,9.68
2023-04-04T01:07:39.569Z,7.07
2023-04-04T01:10:06.530Z,6.30
2023-04-04T01:12:32.960Z,5.30
2023-04-04T01:14:59.336Z,5.75
2023-04-04T01:17:27.114Z,5.20
2023-04-04T01:20:01.204Z,4.70
2023-04-04T01:22:29.697Z,5.65
2023-04-04T01:24:57.263Z,8.05
2023-04-04T01:27:23.787Z,9.15
2023-04-04T01:29:50.205Z,7.53
2023-04-04T01:32:20.887Z,6.60
2023-04-04T01:34:53.902Z,5.82
2023-04-04T01:37:21.266Z,6.45
2023-04-04T01:40:08.658Z,5.72
2023-04-04T01:42:36.056Z,5.43
2023-04-04T01:45:03.027Z,5.25
2023-04-04T01:47:31.014Z,4.95
2023-04-04T01:49:57.420Z,5.38
2023-04-04T01:52:23.788Z,5.80
2023-04-04T01:54:50.599Z,5.20
2023-04-04T01:57:17.395Z,5.80
2023-04-04T01:59:43.849Z,6.45
2023-04-04T02:02:12.878Z,6.38
2023-04-04T02:04:39.427Z,6.95
2023-04-04T02:07:06.411Z,5.57
2023-04-04T02:09:33.479Z,5.10
2023-04-04T02:11:59.927Z,5.03
2023-04-04T02:14:26.467Z,4.90
2023-04-04T02:16:52.939Z,4.82
2023-04-04T02:19:19.328Z,4.43
2023-04-04T02:21:45.844Z,4.53
2023-04-04T02:24:12.586Z,5.38
2023-04-04T02:26:39.076Z,4.40
2023-04-04T02:29:06.231Z,5.45
2023-04-04T02:31:32.695Z,5.70
2023-04-04T02:33:59.166Z,6.00
2023-04-04T02:36:25.618Z,5.82
2023-04-04T02:38:51.999Z,6.80
2023-04-04T02:41:18.399Z,5.97
2023-04-04T02:43:44.816Z,6.05
2023-04-04T02:46:20.969Z,6.10
2023-04-04T02:48:48.549Z,5.90
2023-04-04T02:51:14.924Z,6.15
2023-04-04T02:53:41.331Z,5.20
2023-04-04T02:56:07.775Z,5.60
2023-04-04T02:58:34.805Z,6.40
2023-04-04T03:01:01.281Z,5.70
2023-04-04T03:03:27.953Z,5.38
2023-04-04T03:05:54.591Z,5.28
2023-04-04T03:08:20.967Z,5.45
2023-04-04T03:10:47.353Z,5.25
2023-04-04T03:13:13.787Z,5.50
2023-04-04T03:15:43.777Z,6.43
2023-04-04T03:18:13.913Z,6.43
2023-04-04T03:20:40.482Z,5.97
2023-04-04T03:23:07.050Z,5.82
2023-04-04T03:25:33.454Z,6.00
2023-04-04T03:28:08.682Z,5.88
2023-04-04T03:30:35.212Z,5.75
2023-04-04T03:33:09.845Z,6.55
2023-04-04T03:35:40.045Z,6.80
2023-04-04T03:38:06.988Z,5.82
2023-04-04T03:40:33.453Z,5.97
2023-04-04T03:42:59.876Z,5.88
2023-04-04T03:45:26.252Z,5.45
2023-04-04T03:47:52.793Z,5.93
2023-04-04T03:50:19.306Z,5.75
2023-04-04T03:52:45.685Z,5.75
2023-04-04T03:55:12.475Z,5.45
2023-04-04T03:57:38.858Z,6.00
2023-04-04T04:00:05.896Z,6.32
2023-04-04T04:02:32.374Z,5.97
2023-04-04T04:04:58.785Z,5.80
2023-04-04T04:07:25.513Z,6.40
2023-04-04T04:09:51.914Z,5.80
2023-04-04T04:12:18.294Z,6.57
2023-04-04T04:14:44.684Z,6.65
2023-04-04T04:17:11.175Z,6.05
2023-04-04T04:19:37.557Z,6.00
2023-04-04T04:22:03.936Z,5.97
2023-04-04T04:24:30.381Z,6.45
2023-04-04T04:26:56.765Z,6.50
2023-04-04T04:29:23.359Z,6.05
2023-04-04T04:31:49.825Z,6.07
2023-04-04T04:34:16.262Z,6.43
2023-04-04T04:36:42.635Z,6.05
2023-04-04T04:39:09.086Z,6.13
2023-04-04T04:41:36.634Z,6.80
2023-04-04T04:44:03.340Z,6.30
2023-04-04T04:46:29.946Z,6.88
2023-04-04T04:48:56.630Z,6.45
2023-04-04T04:51:23.336Z,6.35
2023-04-04T04:53:49.714Z,6.30
2023-04-04T04:56:16.556Z,6.45
2023-04-04T04:58:45.015Z,6.28
2023-04-04T05:01:11.857Z,11.50
2023-04-04T05:03:38.323Z,19.08
2023-04-04T05:06:04.889Z,18.05
2023-04-04T05:08:31.271Z,10.27
2023-04-04T05:10:57.859Z,9.40
2023-04-04T05:13:24.323Z,7.30
2023-04-04T05:15:50.898Z,7.45
2023-04-04T05:18:17.327Z,7.13
2023-04-04T05:20:43.858Z,7.95
2023-04-04T05:23:10.235Z,7.97
2023-04-04T05:25:36.646Z,6.97
2023-04-04T05:28:03.903Z,6.60
2023-04-04T05:30:30.330Z,8.02
2023-04-04T05:32:56.745Z,10.48
2023-04-04T05:35:23.174Z,13.25
2023-04-04T05:37:49.634Z,11.95
2023-04-04T05:40:16.164Z,15.27
2023-04-04T05:42:42.709Z,13.93
2023-04-04T05:45:09.686Z,10.57
2023-04-04T05:47:36.169Z,9.35
2023-04-04T05:50:02.734Z,9.63
2023-04-04T05:52:29.114Z,8.30
2023-04-04T05:54:55.878Z,8.88
2023-04-04T05:57:23.450Z,8.88
2023-04-04T05:59:50.622Z,10.52
2023-04-04T06:02:17.393Z,11.63
2023-04-04T06:04:45.331Z,13.90
2023-04-04T06:07:11.718Z,12.63
2023-04-04T06:09:38.389Z,12.13
2023-04-04T06:12:04.816Z,12.75
2023-04-04T06:14:31.268Z,11.75
2023-04-04T06:16:58.318Z,10.68
2023-04-04T06:19:24.699Z,10.13
2023-04-04T06:21:51.320Z,10.13
2023-04-04T06:24:17.690Z,8.55
2023-04-04T06:26:45.028Z,8.48
2023-04-04T06:29:11.543Z,9.50
2023-04-04T06:31:38.125Z,9.43
2023-04-04T06:34:04.568Z,10.20
2023-04-04T06:36:31.105Z,10.25
2023-04-04T06:38:57.678Z,10.32
2023-04-04T06:41:24.048Z,9.60
2023-04-04T06:43:50.514Z,9.05
2023-04-04T06:46:17.009Z,8.77
2023-04-04T06:48:43.454Z,7.82
2023-04-04T06:51:09.860Z,7.72
2023-04-04T06:53:36.405Z,8.50
2023-04-04T06:56:03.203Z,7.43
2023-04-04T06:58:29.600Z,8.52
2023-04-04T07:00:57.065Z,7.57
2023-04-04T07:03:24.328Z,8.18
2023-04-04T07:05:50.746Z,7.80
2023-04-04T07:08:17.132Z,7.63
2023-04-04T07:10:43.953Z,8.52
2023-04-04T07:13:11.147Z,8.10
2023-04-04T07:15:37.619Z,7.97
2023-04-04T07:18:04.082Z,8.55
2023-04-04T07:20:30.497Z,9.32
2023-04-04T07:22:56.921Z,7.85
2023-04-04T07:25:23.312Z,7.65
2023-04-04T07:27:53.069Z,7.20
2023-04-04T07:30:26.267Z,8.02
2023-04-04T07:33:02.695Z,7.22
2023-04-04T07:35:29.204Z,7.72
2023-04-04T07:37:55.568Z,7.75
2023-04-04T07:40:22.035Z,6.60
2023-04-04T07:42:51.729Z,6.47
2023-04-04T07:45:18.297Z,6.40
2023-04-04T07:47:45.163Z,5.90
2023-04-04T07:50:12.566Z,6.50
2023-04-04T07:52:39.161Z,6.15
2023-04-04T07:55:07.346Z,5.85
2023-04-04T07:57:37.417Z,5.00
2023-04-04T08:00:05.714Z,5.53
2023-04-04T08:02:32.187Z,5.20
2023-04-04T08:04:58.603Z,4.75
2023-04-04T08:07:25.273Z,4.82
2023-04-04T08:09:51.706Z,5.35
2023-04-04T08:12:18.133Z,4.80
2023-04-04T08:14:44.564Z,3.95
2023-04-04T08:17:12.134Z,4.28
2023-04-04T08:19:38.502Z,5.70
2023-04-04T08:22:05.337Z,4.63
2023-04-04T08:24:31.713Z,5.80
2023-04-04T08:27:05.288Z,4.32
2023-04-04T08:29:32.710Z,5.65
2023-04-04T08:31:59.438Z,4.65
2023-04-04T08:34:25.993Z,3.78
2023-04-04T08:36:52.888Z,2.72
2023-04-04T08:39:19.246Z,3.13
2023-04-04T08:41:45.946Z,3.28
2023-04-04T08:44:18.004Z,2.63
2023-04-04T08:46:45.489Z,3.45
2023-04-04T08:49:13.722Z,3.03
2023-04-04T08:51:44.574Z,3.00
2023-04-04T08:54:13.016Z,3.35
2023-04-04T08:56:39.405Z,3.20
2023-04-04T08:59:06.053Z,3.20
2023-04-04T09:01:33.216Z,3.22
2023-04-04T09:04:00.477Z,3.38
2023-04-04T09:06:27.702Z,3.92
2023-04-04T09:08:54.574Z,3.70
2023-04-04T09:11:22.324Z,3.45
2023-04-04T09:13:50.765Z,3.15
2023-04-04T09:16:17.436Z,3.95
2023-04-04T09:18:44.022Z,3.13
2023-04-04T09:21:11.850Z,4.18
2023-04-04T09:23:38.595Z,2.95
2023-04-04T09:26:05.366Z,3.03
2023-04-04T09:28:32.561Z,3.42
2023-04-04T09:31:05.535Z,3.00
2023-04-04T09:33:33.413Z,3.13
2023-04-04T09:36:12.549Z,2.92
2023-04-04T09:38:40.870Z,2.80
2023-04-04T09:41:09.710Z,2.78
2023-04-04T09:43:37.271Z,3.10
2023-04-04T09:46:04.126Z,2.78
2023-04-04T09:48:32.506Z,3.75
2023-04-04T09:50:59.667Z,2.83
2023-04-04T09:53:26.269Z,3.38
2023-04-04T09:55:54.563Z,4.35
2023-04-04T09:58:24.717Z,2.90
2023-04-04T10:00:53.282Z,3.30
2023-04-04T10:03:22.202Z,2.72
2023-04-04T10:05:54.296Z,3.22
2023-04-04T10:08:24.176Z,2.72
2023-04-04T10:11:06.506Z,3.08
2023-04-04T10:13:40.476Z,2.80
2023-04-04T10:16:07.267Z,2.65
2023-04-04T10:18:35.403Z,2.45
2023-04-04T10:21:14.651Z,3.10
2023-04-04T10:23:43.740Z,3.00
2023-04-04T10:26:10.837Z,3.03
2023-04-04T10:28:37.658Z,3.22
2023-04-04T10:31:22.040Z,3.53
2023-04-04T10:34:00.791Z,3.22
2023-04-04T10:36:31.431Z,3.00
2023-04-04T10:39:04.963Z,3.60
2023-04-04T10:41:32.416Z,5.47
2023-04-04T10:44:01.299Z,2.70
2023-04-04T10:46:31.696Z,4.82
2023-04-04T10:49:00.176Z,3.33
2023-04-04T10:51:26.979Z,3.45
2023-04-04T10:53:53.991Z,3.55
2023-04-04T10:56:21.435Z,3.17
2023-04-04T10:58:49.108Z,2.83
2023-04-04T11:01:20.838Z,3.00
2023-04-04T11:04:20.084Z,3.50
2023-04-04T11:07:16.107Z,7.03
2023-04-04T11:09:55.396Z,3.60
2023-04-04T11:12:31.149Z,4.32
2023-04-04T11:15:00.535Z,3.13
2023-04-04T11:17:48.657Z,2.90
2023-04-04T11:20:17.052Z,3.45
2023-04-04T11:22:43.760Z,3.22
2023-04-04T11:25:27.072Z,2.80
2023-04-04T11:27:58.056Z,2.40
2023-04-04T11:30:30.364Z,3.40
2023-04-04T11:33:07.100Z,2.75
2023-04-04T11:35:38.415Z,3.25
2023-04-04T11:38:12.817Z,2.85
2023-04-04T11:40:41.319Z,3.30
2023-04-04T11:43:09.843Z,2.60
2023-04-04T11:45:37.425Z,2.45
2023-04-04T11:48:06.028Z,3.20
2023-04-04T11:50:40.027Z,3.40
2023-04-04T11:53:10.281Z,3.00
2023-04-04T11:55:43.802Z,2.60
2023-04-04T11:58:13.146Z,2.70
2023-04-04T12:00:39.991Z,3.55
2023-04-04T12:03:10.740Z,2.30
2023-04-04T12:05:38.636Z,2.35
2023-04-04T12:08:07.508Z,2.33
2023-04-04T12:10:34.803Z,2.42
2023-04-04T12:13:02.589Z,2.47
2023-04-04T12:15:29.791Z,2.47
2023-04-04T12:17:56.284Z,3.03
2023-04-04T12:20:24.250Z,2.55
2023-04-04T12:22:54.212Z,2.97
2023-04-04T12:25:22.121Z,2.63
2023-04-04T12:27:48.993Z,2.65
2023-04-04T12:30:16.069Z,2.33
2023-04-04T12:32:44.024Z,3.30
2023-04-04T12:35:11.630Z,2.65
2023-04-04T12:37:38.119Z,2.50
2023-04-04T12:40:04.972Z,2.38
2023-04-04T12:42:32.499Z,2.00
2023-04-04T12:45:02.161Z,2.40
2023-04-04T12:47:31.123Z,2.63
2023-04-04T12:49:57.629Z,2.88
2023-04-04T12:52:29.659Z,2.55
2023-04-04T12:57:34.654Z,2.40
2023-04-04T13:00:02.197Z,3.00
2023-04-04T13:02:29.468Z,2.65
2023-04-04T13:04:56.378Z,2.33
2023-04-04T13:07:25.437Z,2.38
2023-04-04T13:09:57.814Z,2.35
2023-04-04T13:12:24.879Z,2.80
2023-04-04T13:15:01.741Z,2.30
2023-04-04T13:17:43.074Z,2.70
2023-04-04T13:20:10.496Z,12.27
2023-04-04T13:22:37.784Z,3.00
2023-04-04T13:25:05.795Z,2.85
2023-04-04T13:27:32.239Z,2.50
2023-04-04T13:29:58.624Z,2.65
2023-04-04T13:32:25.397Z,2.83
2023-04-04T13:34:51.912Z,3.97
2023-04-04T13:37:18.658Z,2.65
2023-04-04T13:39:45.028Z,2.67
2023-04-04T13:42:11.416Z,3.30
2023-04-04T13:44:37.787Z,3.13
2023-04-04T13:47:04.204Z,3.05
2023-04-04T13:49:30.645Z,2.78
2023-04-04T13:51:57.041Z,2.60
2023-04-04T13:54:23.419Z,2.58
2023-04-04T13:56:49.806Z,3.10
2023-04-04T13:59:16.292Z,2.97
2023-04-04T14:01:42.805Z,2.90
2023-04-04T14:04:22.980Z,2.70
2023-04-04T14:06:50.428Z,2.65
2023-04-04T14:09:16.802Z,3.10
2023-04-04T14:11:43.424Z,2.60
2023-04-04T14:14:09.826Z,4.80
2023-04-04T14:16:36.434Z,2.53
2023-04-04T14:19:03.001Z,3.40
2023-04-04T14:21:29.385Z,3.00
2023-04-04T14:23:55.787Z,3.38
2023-04-04T14:26:22.234Z,2.83
2023-04-04T14:28:48.792Z,2.60
2023-04-04T14:31:15.406Z,3.00
2023-04-04T14:33:41.998Z,2.60
2023-04-04T14:36:08.410Z,3.17
2023-04-04T14:38:34.835Z,3.25
2023-04-04T14:41:01.894Z,3.80
2023-04-04T14:43:28.325Z,2.85
2023-04-04T14:45:54.808Z,3.08
2023-04-04T14:48:21.227Z,2.88
2023-04-04T14:50:47.644Z,3.35
2023-04-04T14:53:14.167Z,3.28
2023-04-04T14:55:40.842Z,3.80
2023-04-04T14:58:08.179Z,3.35
2023-04-04T15:00:34.616Z,3.20
2023-04-04T15:03:01.539Z,3.70
2023-04-04T15:05:28.171Z,3.90
2023-04-04T15:07:55.516Z,3.72
2023-04-04T15:10:21.937Z,3.80
2023-04-04T15:12:48.409Z,4.05
2023-04-04T15:15:15.585Z,4.80
2023-04-04T15:17:42.196Z,3.63
2023-04-04T15:20:09.458Z,3.70
2023-04-04T15:22:36.267Z,3.25
2023-04-04T15:25:02.698Z,3.55
2023-04-04T15:27:29.190Z,3.75
2023-04-04T15:29:55.828Z,4.32
2023-04-04T15:32:22.232Z,3.40
2023-04-04T15:34:48.640Z,3.67
2023-04-04T15:37:15.725Z,3.60
2023-04-04T15:39:51.838Z,3.90
2023-04-04T15:42:19.692Z,3.05
2023-04-04T15:44:46.540Z,3.72
2023-04-04T15:47:13.089Z,3.25
2023-04-04T15:49:39.515Z,3.00
2023-04-04T15:52:05.964Z,3.65
2023-04-04T15:54:32.356Z,3.10
2023-04-04T15:56:58.730Z,3.40
2023-04-04T15:59:25.220Z,3.85
2023-04-04T16:01:51.812Z,2.90
2023-04-04T16:04:18.220Z,3.28
2023-04-04T16:06:44.612Z,3.60
2023-04-04T16:09:11.381Z,3.80
2023-04-04T16:11:37.924Z,2.80
2023-04-04T16:14:05.913Z,3.30
2023-04-04T16:16:32.332Z,3.10
2023-04-04T16:18:58.709Z,3.08
2023-04-04T16:21:27.997Z,3.42
2023-04-04T16:23:54.708Z,3.17
2023-04-04T16:26:21.951Z,3.50
2023-04-04T16:28:48.348Z,3.22
2023-04-04T16:31:15.340Z,3.72
2023-04-04T16:33:42.191Z,3.90
2023-04-04T16:36:08.682Z,3.80
2023-04-04T16:38:35.083Z,3.25
2023-04-04T16:41:01.862Z,3.33
2023-04-04T16:43:28.283Z,3.33
2023-04-04T16:45:54.663Z,3.33
2023-04-04T16:48:21.067Z,3.45
2023-04-04T16:50:47.545Z,4.10
2023-04-04T16:53:13.949Z,3.25
2023-04-04T16:55:40.589Z,3.65
2023-04-04T16:58:06.968Z,3.50
2023-04-04T17:00:33.444Z,3.53
2023-04-04T17:03:00.008Z,3.70
2023-04-04T17:05:26.494Z,3.75
2023-04-04T17:07:52.876Z,4.07
2023-04-04T17:10:19.408Z,10.57
2023-04-04T17:12:45.838Z,3.97
2023-04-04T17:15:12.276Z,3.38
2023-04-04T17:17:38.669Z,3.17
2023-04-04T17:20:05.924Z,4.10
2023-04-04T17:22:32.320Z,3.15
2023-04-04T17:24:58.735Z,4.45
2023-04-04T17:27:25.276Z,7.57
2023-04-04T17:29:52.096Z,4.03
2023-04-04T17:32:19.278Z,3.60
2023-04-04T17:34:46.015Z,2.90
2023-04-04T17:37:13.181Z,3.20
2023-04-04T17:39:39.575Z,3.67
2023-04-04T17:42:05.970Z,3.55
2023-04-04T17:44:32.378Z,16.65
2023-04-04T17:46:59.606Z,14.32
2023-04-04T17:49:26.257Z,10.23
2023-04-04T17:51:53.461Z,12.25
2023-04-04T17:54:20.700Z,6.00
2023-04-04T17:56:47.555Z,4.75
2023-04-04T17:59:14.638Z,4.30
2023-04-04T18:01:41.342Z,5.97
2023-04-04T18:04:08.222Z,25.20
2023-04-04T18:06:34.621Z,22.08
2023-04-04T18:09:01.020Z,10.63
2023-04-04T18:11:27.875Z,7.60
2023-04-04T18:13:54.323Z,6.38
2023-04-04T18:16:20.832Z,5.78
2023-04-04T18:18:47.256Z,5.40
2023-04-04T18:21:13.707Z,5.80
2023-04-04T18:23:40.505Z,5.32
2023-04-04T18:26:07.256Z,6.07
2023-04-04T18:28:33.634Z,10.90
2023-04-04T18:31:00.320Z,10.80
2023-04-04T18:33:27.879Z,8.02
2023-04-04T18:35:54.595Z,8.13
2023-04-04T18:38:21.195Z,7.97
2023-04-04T18:40:47.753Z,6.80
2023-04-04T18:43:14.212Z,8.80
2023-04-04T18:45:41.336Z,8.70
2023-04-04T18:48:08.397Z,7.75
2023-04-04T18:50:35.319Z,6.10
2023-04-04T18:53:01.773Z,5.47
2023-04-04T18:55:28.167Z,5.93
2023-04-04T18:57:54.775Z,7.35
2023-04-04T19:00:21.495Z,7.30
2023-04-04T19:02:48.125Z,7.55
2023-04-04T19:05:15.365Z,7.18
2023-04-04T19:07:42.266Z,7.25
2023-04-04T19:10:09.172Z,6.80
2023-04-04T19:12:35.715Z,7.60
2023-04-04T19:15:02.514Z,6.55
2023-04-04T19:17:29.604Z,7.03
2023-04-04T19:19:57.405Z,7.43
2023-04-04T19:22:23.843Z,8.30
2023-04-04T19:24:50.237Z,7.53
2023-04-04T19:27:16.658Z,6.72
2023-04-04T19:29:43.108Z,6.93
2023-04-04T19:32:16.685Z,6.57
2023-04-04T19:34:43.731Z,5.80
2023-04-04T19:37:12.143Z,7.38
2023-04-04T19:39:39.247Z,8.07
2023-04-04T19:42:07.130Z,8.05
2023-04-04T19:44:33.832Z,8.25
2023-04-04T19:47:01.006Z,8.35
2023-04-04T19:49:33.404Z,7.78
2023-04-04T19:52:01.388Z,8.15
2023-04-04T19:54:30.679Z,6.88
2023-04-04T19:57:03.433Z,6.65
2023-04-04T19:59:51.292Z,7.25
2023-04-04T20:02:26.948Z,7.05
2023-04-04T20:04:54.085Z,7.10
2023-04-04T20:07:20.756Z,6.25
2023-04-04T20:09:47.702Z,6.80
2023-04-04T20:12:16.076Z,6.55
2023-04-04T20:14:42.499Z,7.00
2023-04-04T20:17:09.618Z,7.65
2023-04-04T20:19:36.497Z,7.72
2023-04-04T20:22:04.888Z,7.03
2023-04-04T20:24:31.322Z,6.80
2023-04-04T20:26:59.015Z,7.40
2023-04-04T20:29:26.796Z,6.13
2023-04-04T20:31:55.478Z,7.00
2023-04-04T20:34:46.821Z,6.57
2023-04-04T20:37:24.134Z,6.65
2023-04-04T20:39:57.807Z,6.95
2023-04-04T20:42:30.494Z,6.78
2023-04-04T20:45:17.589Z,6.95
2023-04-04T20:47:51.836Z,7.22
2023-04-04T20:50:21.331Z,7.78
2023-04-04T20:52:52.863Z,7.07
2023-04-04T20:55:20.339Z,7.65
2023-04-04T20:57:47.329Z,6.90
2023-04-04T21:00:28.620Z,8.18
2023-04-04T21:03:09.284Z,8.02
2023-04-04T21:05:38.653Z,9.00
2023-04-04T21:08:42.823Z,9.85
2023-04-04T21:11:09.779Z,9.77
2023-04-04T21:13:38.457Z,9.02
2023-04-04T21:16:13.550Z,9.07
2023-04-04T21:18:41.531Z,8.98
2023-04-04T21:21:07.992Z,8.15
2023-04-04T21:23:41.552Z,8.10
2023-04-04T21:26:09.657Z,7.63
2023-04-04T21:28:38.047Z,8.02
2023-04-04T21:31:16.209Z,8.13
2023-04-04T21:33:47.732Z,8.05
2023-04-04T21:36:23.289Z,7.82
2023-04-04T21:38:51.293Z,6.80
2023-04-04T21:41:34.727Z,7.00
2023-04-04T21:44:06.520Z,7.10
2023-04-04T21:46:35.690Z,7.45
2023-04-04T21:49:03.099Z,6.68
2023-04-04T21:51:29.595Z,7.70
2023-04-04T21:53:57.314Z,7.20
2023-04-04T21:56:32.659Z,8.38
2023-04-04T21:59:04.251Z,8.93
2023-04-04T22:01:31.111Z,10.60
2023-04-04T22:03:58.518Z,10.65
2023-04-04T22:06:27.768Z,9.82
2023-04-04T22:08:55.933Z,9.45
2023-04-04T22:11:25.679Z,10.90
2023-04-04T22:13:52.459Z,11.73
2023-04-04T22:16:19.845Z,13.00
2023-04-04T22:18:47.795Z,13.90
2023-04-04T22:21:15.253Z,13.80
2023-04-04T22:23:42.216Z,10.95
2023-04-04T22:26:11.002Z,8.50
2023-04-04T22:28:38.478Z,7.97
2023-04-04T22:31:06.029Z,8.43
2023-04-04T22:33:33.826Z,7.88
2023-04-04T22:36:01.197Z,8.27
2023-04-04T22:38:28.265Z,7.72
2023-04-04T22:40:55.948Z,8.40
2023-04-04T22:43:22.591Z,7.38
2023-04-04T22:45:49.417Z,7.70
2023-04-04T22:48:15.863Z,7.07
2023-04-04T22:50:42.561Z,6.35
2023-04-04T22:53:12.793Z,8.02
2023-04-04T22:55:40.312Z,7.45
2023-04-04T22:58:07.450Z,7.55
2023-04-04T23:00:34.366Z,7.50
2023-04-04T23:03:02.071Z,7.15
2023-04-04T23:05:29.087Z,7.13
2023-04-04T23:07:55.560Z,7.45
2023-04-04T23:10:21.942Z,8.23
2023-04-04T23:12:48.336Z,7.72
2023-04-04T23:15:14.742Z,7.28
2023-04-04T23:17:41.330Z,8.10
2023-04-04T23:20:09.959Z,6.93
2023-04-04T23:22:37.729Z,8.45
2023-04-04T23:25:07.872Z,7.43
2023-04-04T23:27:34.672Z,6.47
2023-04-04T23:30:05.009Z,6.43
2023-04-04T23:32:32.008Z,7.30
2023-04-04T23:34:58.426Z,6.93
2023-04-04T23:37:24.836Z,7.25
2023-04-04T23:39:51.228Z,7.57
2023-04-04T23:42:17.604Z,7.65
2023-04-04T23:44:44.047Z,6.80
2023-04-04T23:47:10.821Z,6.60
2023-04-04T23:49:37.563Z,7.18
2023-04-04T23:52:05.956Z,7.57
2023-04-04T23:54:32.356Z,7.30
2023-04-04T23:56:58.786Z,7.93
2023-04-04T23:59:25.770Z,8.55
